Newell, South Dakota
Current Conditions -  °F | °C
As of 11:55 AM on Sunday 23 Nov 2014 (Local Time) from KSPF Reporting Station
Unknown Precip Unknown Precip  
Wind Chill: 23°   Ceiling: 3900
Heat Index: 36°   Visibility: 10mi
Dew Point: 21°   Wind: 29mph
Humidity: 56%   Direction: 300°WNW
Pressure: 29.73"   Gusts: 41mph
Location:  44.71°N, 103.42°W
Report Text: KSPF 231855Z AUTO 30025G36KT 10SM UP BKN039 02/M06 A2973 RMK AO2
Loading
Personal Weather Stations






























Interactive Weather Map New forecast layout! Learn more

10-Day Weather Forecast

Advertisements
Track Severe Weather on mobile